sensor_id;sensor_type;location;lat;lon;timestamp;temperature;humidity
32097;DHT22;18610;49.916;8.284;2023-04-03T00:00:36;5.50;99.90
32097;DHT22;18610;49.916;8.284;2023-04-03T00:03:05;5.50;99.90
32097;DHT22;18610;49.916;8.284;2023-04-03T00:05:31;5.50;99.90
32097;DHT22;18610;49.916;8.284;2023-04-03T00:07:58;5.60;99.90
32097;DHT22;18610;49.916;8.284;2023-04-03T00:10:25;5.50;99.90
32097;DHT22;18610;49.916;8.284;2023-04-03T00:12:52;5.60;99.90
32097;DHT22;18610;49.916;8.284;2023-04-03T00:15:19;5.60;99.90
32097;DHT22;18610;49.916;8.284;2023-04-03T00:17:45;5.60;99.90
32097;DHT22;18610;49.916;8.284;2023-04-03T00:20:13;5.60;99.90
32097;DHT22;18610;49.916;8.284;2023-04-03T00:22:40;5.60;99.90
32097;DHT22;18610;49.916;8.284;2023-04-03T00:25:08;5.70;99.90
32097;DHT22;18610;49.916;8.284;2023-04-03T00:27:36;5.70;99.90
32097;DHT22;18610;49.916;8.284;2023-04-03T00:30:03;5.70;99.90
32097;DHT22;18610;49.916;8.284;2023-04-03T00:32:30;5.70;99.90
32097;DHT22;18610;49.916;8.284;2023-04-03T00:34:57;5.70;99.90
32097;DHT22;18610;49.916;8.284;2023-04-03T00:37:25;5.70;99.90
32097;DHT22;18610;49.916;8.284;2023-04-03T00:39:52;5.80;99.90
32097;DHT22;18610;49.916;8.284;2023-04-03T00:42:18;5.80;99.90
32097;DHT22;18610;49.916;8.284;2023-04-03T00:47:49;5.80;99.90
32097;DHT22;18610;49.916;8.284;2023-04-03T00:50:17;5.70;99.90
32097;DHT22;18610;49.916;8.284;2023-04-03T00:52:45;5.70;99.90
32097;DHT22;18610;49.916;8.284;2023-04-03T00:55:14;5.60;99.90
32097;DHT22;18610;49.916;8.284;2023-04-03T00:57:42;5.60;99.90
32097;DHT22;18610;49.916;8.284;2023-04-03T01:00:11;5.60;99.90
32097;DHT22;18610;49.916;8.284;2023-04-03T01:02:39;5.60;99.90
32097;DHT22;18610;49.916;8.284;2023-04-03T01:05:07;5.60;99.90
32097;DHT22;18610;49.916;8.284;2023-04-03T01:07:34;5.70;99.90
32097;DHT22;18610;49.916;8.284;2023-04-03T01:10:05;5.60;99.90
32097;DHT22;18610;49.916;8.284;2023-04-03T01:12:34;5.60;99.90
32097;DHT22;18610;49.916;8.284;2023-04-03T01:15:03;5.60;99.90
32097;DHT22;18610;49.916;8.284;2023-04-03T01:17:35;5.70;99.90
32097;DHT22;18610;49.916;8.284;2023-04-03T01:23:36;5.70;99.90
32097;DHT22;18610;49.916;8.284;2023-04-03T01:26:08;5.60;99.90
32097;DHT22;18610;49.916;8.284;2023-04-03T01:28:37;5.70;99.90
32097;DHT22;18610;49.916;8.284;2023-04-03T01:31:12;5.70;99.90
32097;DHT22;18610;49.916;8.284;2023-04-03T01:33:42;5.60;99.90
32097;DHT22;18610;49.916;8.284;2023-04-03T01:36:13;5.60;99.90
32097;DHT22;18610;49.916;8.284;2023-04-03T01:38:39;5.60;99.90
32097;DHT22;18610;49.916;8.284;2023-04-03T01:41:06;5.60;99.90
32097;DHT22;18610;49.916;8.284;2023-04-03T01:43:33;5.60;99.90
32097;DHT22;18610;49.916;8.284;2023-04-03T01:46:00;5.60;99.90
32097;DHT22;18610;49.916;8.284;2023-04-03T01:48:26;5.60;99.90
32097;DHT22;18610;49.916;8.284;2023-04-03T01:50:54;5.60;99.90
32097;DHT22;18610;49.916;8.284;2023-04-03T01:53:21;5.60;99.90
32097;DHT22;18610;49.916;8.284;2023-04-03T01:55:48;5.60;99.90
32097;DHT22;18610;49.916;8.284;2023-04-03T01:58:15;5.60;99.90
32097;DHT22;18610;49.916;8.284;2023-04-03T02:00:42;5.60;99.90
32097;DHT22;18610;49.916;8.284;2023-04-03T02:03:08;5.60;99.90
32097;DHT22;18610;49.916;8.284;2023-04-03T02:05:35;5.50;99.90
32097;DHT22;18610;49.916;8.284;2023-04-03T02:08:04;5.60;99.90
32097;DHT22;18610;49.916;8.284;2023-04-03T02:10:31;5.60;99.90
32097;DHT22;18610;49.916;8.284;2023-04-03T02:12:58;5.60;99.90
32097;DHT22;18610;49.916;8.284;2023-04-03T02:15:25;5.60;99.90
32097;DHT22;18610;49.916;8.284;2023-04-03T02:17:52;5.60;99.90
32097;DHT22;18610;49.916;8.284;2023-04-03T02:20:19;5.60;99.90
32097;DHT22;18610;49.916;8.284;2023-04-03T02:22:46;5.50;99.90
32097;DHT22;18610;49.916;8.284;2023-04-03T02:25:15;5.50;99.90
32097;DHT22;18610;49.916;8.284;2023-04-03T02:27:43;5.50;99.90
32097;DHT22;18610;49.916;8.284;2023-04-03T02:30:10;5.50;99.90
32097;DHT22;18610;49.916;8.284;2023-04-03T02:32:37;5.50;99.90
32097;DHT22;18610;49.916;8.284;2023-04-03T02:35:04;5.40;99.90
32097;DHT22;18610;49.916;8.284;2023-04-03T02:37:31;5.40;99.90
32097;DHT22;18610;49.916;8.284;2023-04-03T02:39:59;5.40;99.90
32097;DHT22;18610;49.916;8.284;2023-04-03T02:42:27;5.40;99.90
32097;DHT22;18610;49.916;8.284;2023-04-03T02:44:53;5.40;99.90
32097;DHT22;18610;49.916;8.284;2023-04-03T02:47:21;5.40;99.90
32097;DHT22;18610;49.916;8.284;2023-04-03T02:49:47;5.40;99.90
32097;DHT22;18610;49.916;8.284;2023-04-03T02:52:14;5.30;99.90
32097;DHT22;18610;49.916;8.284;2023-04-03T02:54:41;5.30;99.90
32097;DHT22;18610;49.916;8.284;2023-04-03T02:57:08;5.30;99.90
32097;DHT22;18610;49.916;8.284;2023-04-03T02:59:36;5.40;99.90
32097;DHT22;18610;49.916;8.284;2023-04-03T03:02:05;5.40;99.90
32097;DHT22;18610;49.916;8.284;2023-04-03T03:04:32;5.40;99.90
32097;DHT22;18610;49.916;8.284;2023-04-03T03:06:59;5.40;99.90
32097;DHT22;18610;49.916;8.284;2023-04-03T03:09:26;5.50;99.90
32097;DHT22;18610;49.916;8.284;2023-04-03T03:11:53;5.50;99.90
32097;DHT22;18610;49.916;8.284;2023-04-03T03:14:19;5.40;99.90
32097;DHT22;18610;49.916;8.284;2023-04-03T03:16:47;5.40;99.90
32097;DHT22;18610;49.916;8.284;2023-04-03T03:19:14;5.40;99.90
32097;DHT22;18610;49.916;8.284;2023-04-03T03:21:41;5.40;99.90
32097;DHT22;18610;49.916;8.284;2023-04-03T03:24:08;5.40;99.90
32097;DHT22;18610;49.916;8.284;2023-04-03T03:26:36;5.40;99.90
32097;DHT22;18610;49.916;8.284;2023-04-03T03:29:02;5.40;99.90
32097;DHT22;18610;49.916;8.284;2023-04-03T03:31:29;5.40;99.90
32097;DHT22;18610;49.916;8.284;2023-04-03T03:33:57;5.40;99.90
32097;DHT22;18610;49.916;8.284;2023-04-03T03:36:24;5.30;99.90
32097;DHT22;18610;49.916;8.284;2023-04-03T03:38:50;5.40;99.90
32097;DHT22;18610;49.916;8.284;2023-04-03T03:41:17;5.40;99.90
32097;DHT22;18610;49.916;8.284;2023-04-03T03:43:44;5.40;99.90
32097;DHT22;18610;49.916;8.284;2023-04-03T03:46:11;5.40;99.90
32097;DHT22;18610;49.916;8.284;2023-04-03T03:48:37;5.40;99.90
32097;DHT22;18610;49.916;8.284;2023-04-03T03:51:05;5.40;99.90
32097;DHT22;18610;49.916;8.284;2023-04-03T03:53:32;5.40;99.90
32097;DHT22;18610;49.916;8.284;2023-04-03T03:55:59;5.40;99.90
32097;DHT22;18610;49.916;8.284;2023-04-03T03:58:26;5.40;99.90
32097;DHT22;18610;49.916;8.284;2023-04-03T04:00:53;5.40;99.90
32097;DHT22;18610;49.916;8.284;2023-04-03T04:03:19;5.40;99.90
32097;DHT22;18610;49.916;8.284;2023-04-03T04:05:46;5.40;99.90
32097;DHT22;18610;49.916;8.284;2023-04-03T04:08:14;5.30;99.90
32097;DHT22;18610;49.916;8.284;2023-04-03T04:10:41;5.30;99.90
32097;DHT22;18610;49.916;8.284;2023-04-03T04:13:08;5.20;99.90
32097;DHT22;18610;49.916;8.284;2023-04-03T04:15:34;5.20;99.90
32097;DHT22;18610;49.916;8.284;2023-04-03T04:18:01;5.20;99.90
32097;DHT22;18610;49.916;8.284;2023-04-03T04:20:29;5.20;99.90
32097;DHT22;18610;49.916;8.284;2023-04-03T04:22:55;5.20;99.90
32097;DHT22;18610;49.916;8.284;2023-04-03T04:25:23;5.20;99.90
32097;DHT22;18610;49.916;8.284;2023-04-03T04:27:50;5.20;99.90
32097;DHT22;18610;49.916;8.284;2023-04-03T04:30:17;5.10;99.90
32097;DHT22;18610;49.916;8.284;2023-04-03T04:32:44;5.10;99.90
32097;DHT22;18610;49.916;8.284;2023-04-03T04:35:11;5.10;99.90
32097;DHT22;18610;49.916;8.284;2023-04-03T04:37:37;5.10;99.90
32097;DHT22;18610;49.916;8.284;2023-04-03T04:40:05;5.00;99.90
32097;DHT22;18610;49.916;8.284;2023-04-03T04:42:33;5.00;99.90
32097;DHT22;18610;49.916;8.284;2023-04-03T04:45:00;5.00;99.90
32097;DHT22;18610;49.916;8.284;2023-04-03T04:47:28;5.00;99.90
32097;DHT22;18610;49.916;8.284;2023-04-03T04:49:55;5.00;99.90
32097;DHT22;18610;49.916;8.284;2023-04-03T04:52:22;5.00;99.90
32097;DHT22;18610;49.916;8.284;2023-04-03T04:54:48;4.90;99.90
32097;DHT22;18610;49.916;8.284;2023-04-03T04:57:15;4.90;99.90
32097;DHT22;18610;49.916;8.284;2023-04-03T04:59:44;4.90;99.90
32097;DHT22;18610;49.916;8.284;2023-04-03T05:02:10;4.80;99.90
32097;DHT22;18610;49.916;8.284;2023-04-03T05:04:37;4.80;99.90
32097;DHT22;18610;49.916;8.284;2023-04-03T05:07:04;4.80;99.90
32097;DHT22;18610;49.916;8.284;2023-04-03T05:09:31;4.80;99.90
32097;DHT22;18610;49.916;8.284;2023-04-03T05:11:57;4.80;99.90
32097;DHT22;18610;49.916;8.284;2023-04-03T05:14:24;4.80;99.90
32097;DHT22;18610;49.916;8.284;2023-04-03T05:16:52;4.70;99.90
32097;DHT22;18610;49.916;8.284;2023-04-03T05:19:19;4.70;99.90
32097;DHT22;18610;49.916;8.284;2023-04-03T05:21:46;4.70;99.90
32097;DHT22;18610;49.916;8.284;2023-04-03T05:24:15;4.70;99.90
32097;DHT22;18610;49.916;8.284;2023-04-03T05:26:42;4.70;99.90
32097;DHT22;18610;49.916;8.284;2023-04-03T05:29:09;4.60;99.90
32097;DHT22;18610;49.916;8.284;2023-04-03T05:31:36;4.70;99.90
32097;DHT22;18610;49.916;8.284;2023-04-03T05:34:04;4.70;99.90
32097;DHT22;18610;49.916;8.284;2023-04-03T05:36:31;4.70;99.90
32097;DHT22;18610;49.916;8.284;2023-04-03T05:38:58;4.70;99.90
32097;DHT22;18610;49.916;8.284;2023-04-03T05:41:24;4.70;99.90
32097;DHT22;18610;49.916;8.284;2023-04-03T05:43:51;4.70;99.90
32097;DHT22;18610;49.916;8.284;2023-04-03T05:46:19;4.70;99.90
32097;DHT22;18610;49.916;8.284;2023-04-03T05:48:45;4.70;99.90
32097;DHT22;18610;49.916;8.284;2023-04-03T05:51:17;4.70;99.90
32097;DHT22;18610;49.916;8.284;2023-04-03T05:53:45;4.70;99.90
32097;DHT22;18610;49.916;8.284;2023-04-03T05:56:13;4.70;99.90
32097;DHT22;18610;49.916;8.284;2023-04-03T05:58:40;4.70;99.90
32097;DHT22;18610;49.916;8.284;2023-04-03T06:01:06;4.70;99.90
32097;DHT22;18610;49.916;8.284;2023-04-03T06:03:33;4.80;99.90
32097;DHT22;18610;49.916;8.284;2023-04-03T06:06:03;4.80;99.90
32097;DHT22;18610;49.916;8.284;2023-04-03T06:08:32;4.80;99.90
32097;DHT22;18610;49.916;8.284;2023-04-03T06:10:59;4.80;99.90
32097;DHT22;18610;49.916;8.284;2023-04-03T06:13:27;4.90;99.90
32097;DHT22;18610;49.916;8.284;2023-04-03T06:15:54;5.00;99.90
32097;DHT22;18610;49.916;8.284;2023-04-03T06:18:20;5.10;99.90
32097;DHT22;18610;49.916;8.284;2023-04-03T06:20:47;5.20;99.90
32097;DHT22;18610;49.916;8.284;2023-04-03T06:23:14;5.30;99.90
32097;DHT22;18610;49.916;8.284;2023-04-03T06:25:42;5.30;99.90
32097;DHT22;18610;49.916;8.284;2023-04-03T06:28:09;5.40;99.90
32097;DHT22;18610;49.916;8.284;2023-04-03T06:30:36;5.30;99.90
32097;DHT22;18610;49.916;8.284;2023-04-03T06:33:03;5.30;99.90
32097;DHT22;18610;49.916;8.284;2023-04-03T06:35:30;5.30;99.90
32097;DHT22;18610;49.916;8.284;2023-04-03T06:37:57;5.30;99.90
32097;DHT22;18610;49.916;8.284;2023-04-03T06:40:25;5.40;99.90
32097;DHT22;18610;49.916;8.284;2023-04-03T06:42:54;5.60;99.90
32097;DHT22;18610;49.916;8.284;2023-04-03T06:45:30;5.70;99.90
32097;DHT22;18610;49.916;8.284;2023-04-03T06:47:57;5.90;99.90
32097;DHT22;18610;49.916;8.284;2023-04-03T06:50:24;6.10;99.90
32097;DHT22;18610;49.916;8.284;2023-04-03T06:52:51;6.40;99.90
32097;DHT22;18610;49.916;8.284;2023-04-03T06:55:18;6.50;99.90
32097;DHT22;18610;49.916;8.284;2023-04-03T06:57:45;6.50;99.90
32097;DHT22;18610;49.916;8.284;2023-04-03T07:00:14;6.40;99.90
32097;DHT22;18610;49.916;8.284;2023-04-03T07:02:41;6.30;99.90
32097;DHT22;18610;49.916;8.284;2023-04-03T07:05:08;6.40;99.90
32097;DHT22;18610;49.916;8.284;2023-04-03T07:07:35;6.50;99.90
32097;DHT22;18610;49.916;8.284;2023-04-03T07:10:04;6.70;99.90
32097;DHT22;18610;49.916;8.284;2023-04-03T07:12:31;6.80;99.90
32097;DHT22;18610;49.916;8.284;2023-04-03T07:14:57;7.00;99.90
32097;DHT22;18610;49.916;8.284;2023-04-03T07:17:26;7.20;99.90
32097;DHT22;18610;49.916;8.284;2023-04-03T07:19:53;7.30;99.90
32097;DHT22;18610;49.916;8.284;2023-04-03T07:22:19;7.50;99.90
32097;DHT22;18610;49.916;8.284;2023-04-03T07:24:46;7.60;99.90
32097;DHT22;18610;49.916;8.284;2023-04-03T07:27:13;7.80;99.90
32097;DHT22;18610;49.916;8.284;2023-04-03T07:29:40;8.00;99.90
32097;DHT22;18610;49.916;8.284;2023-04-03T07:32:08;8.10;99.90
32097;DHT22;18610;49.916;8.284;2023-04-03T07:34:36;8.20;99.90
32097;DHT22;18610;49.916;8.284;2023-04-03T07:37:03;8.30;99.90
32097;DHT22;18610;49.916;8.284;2023-04-03T07:39:30;8.40;99.90
32097;DHT22;18610;49.916;8.284;2023-04-03T07:41:57;8.50;99.90
32097;DHT22;18610;49.916;8.284;2023-04-03T07:44:23;8.60;99.90
32097;DHT22;18610;49.916;8.284;2023-04-03T07:46:50;8.70;99.90
32097;DHT22;18610;49.916;8.284;2023-04-03T07:49:17;8.90;98.90
32097;DHT22;18610;49.916;8.284;2023-04-03T07:51:45;9.00;99.20
32097;DHT22;18610;49.916;8.284;2023-04-03T07:54:12;9.10;97.80
32097;DHT22;18610;49.916;8.284;2023-04-03T07:56:39;9.20;97.10
32097;DHT22;18610;49.916;8.284;2023-04-03T07:59:05;9.30;97.10
32097;DHT22;18610;49.916;8.284;2023-04-03T08:01:33;9.30;97.40
32097;DHT22;18610;49.916;8.284;2023-04-03T08:04:00;9.50;97.10
32097;DHT22;18610;49.916;8.284;2023-04-03T08:06:27;9.60;97.40
32097;DHT22;18610;49.916;8.284;2023-04-03T08:08:56;9.70;97.10
32097;DHT22;18610;49.916;8.284;2023-04-03T08:11:23;9.70;97.10
32097;DHT22;18610;49.916;8.284;2023-04-03T08:13:52;9.70;98.00
32097;DHT22;18610;49.916;8.284;2023-04-03T08:16:21;9.80;96.50
32097;DHT22;18610;49.916;8.284;2023-04-03T08:18:48;9.80;96.90
32097;DHT22;18610;49.916;8.284;2023-04-03T08:21:15;9.90;96.80
32097;DHT22;18610;49.916;8.284;2023-04-03T08:23:42;9.90;96.80
32097;DHT22;18610;49.916;8.284;2023-04-03T08:26:12;10.00;96.60
32097;DHT22;18610;49.916;8.284;2023-04-03T08:28:40;10.10;95.90
32097;DHT22;18610;49.916;8.284;2023-04-03T08:31:08;10.20;95.00
32097;DHT22;18610;49.916;8.284;2023-04-03T08:33:36;10.30;95.00
32097;DHT22;18610;49.916;8.284;2023-04-03T08:36:04;10.40;94.90
32097;DHT22;18610;49.916;8.284;2023-04-03T08:38:31;10.60;95.20
32097;DHT22;18610;49.916;8.284;2023-04-03T08:41:14;10.70;94.70
32097;DHT22;18610;49.916;8.284;2023-04-03T08:43:53;10.70;94.50
32097;DHT22;18610;49.916;8.284;2023-04-03T08:46:24;10.80;94.40
32097;DHT22;18610;49.916;8.284;2023-04-03T08:48:53;10.90;93.40
32097;DHT22;18610;49.916;8.284;2023-04-03T08:51:22;11.00;93.90
32097;DHT22;18610;49.916;8.284;2023-04-03T08:53:55;11.10;93.30
32097;DHT22;18610;49.916;8.284;2023-04-03T08:56:25;11.20;92.40
32097;DHT22;18610;49.916;8.284;2023-04-03T08:58:56;11.40;91.70
32097;DHT22;18610;49.916;8.284;2023-04-03T09:01:26;11.50;91.30
32097;DHT22;18610;49.916;8.284;2023-04-03T09:03:53;11.60;92.10
32097;DHT22;18610;49.916;8.284;2023-04-03T09:06:22;11.70;91.90
32097;DHT22;18610;49.916;8.284;2023-04-03T09:08:53;11.90;91.40
32097;DHT22;18610;49.916;8.284;2023-04-03T09:11:26;12.00;90.20
32097;DHT22;18610;49.916;8.284;2023-04-03T09:13:59;12.10;90.60
32097;DHT22;18610;49.916;8.284;2023-04-03T09:16:35;12.20;90.00
32097;DHT22;18610;49.916;8.284;2023-04-03T09:19:10;12.20;87.80
32097;DHT22;18610;49.916;8.284;2023-04-03T09:21:39;12.30;88.70
32097;DHT22;18610;49.916;8.284;2023-04-03T09:24:09;12.40;87.10
32097;DHT22;18610;49.916;8.284;2023-04-03T09:26:42;12.50;87.00
32097;DHT22;18610;49.916;8.284;2023-04-03T09:29:15;12.60;84.80
32097;DHT22;18610;49.916;8.284;2023-04-03T09:31:44;12.70;85.70
32097;DHT22;18610;49.916;8.284;2023-04-03T09:34:19;12.70;83.20
32097;DHT22;18610;49.916;8.284;2023-04-03T09:36:48;12.80;84.60
32097;DHT22;18610;49.916;8.284;2023-04-03T09:39:17;12.80;82.10
32097;DHT22;18610;49.916;8.284;2023-04-03T09:41:58;12.70;80.80
32097;DHT22;18610;49.916;8.284;2023-04-03T09:44:27;12.70;80.90
32097;DHT22;18610;49.916;8.284;2023-04-03T09:46:54;12.80;81.00
32097;DHT22;18610;49.916;8.284;2023-04-03T09:49:20;12.80;78.40
32097;DHT22;18610;49.916;8.284;2023-04-03T09:51:47;12.80;77.30
32097;DHT22;18610;49.916;8.284;2023-04-03T09:54:35;12.80;78.30
32097;DHT22;18610;49.916;8.284;2023-04-03T09:57:09;13.00;79.20
32097;DHT22;18610;49.916;8.284;2023-04-03T09:59:42;13.00;78.90
32097;DHT22;18610;49.916;8.284;2023-04-03T10:02:25;12.90;76.70
32097;DHT22;18610;49.916;8.284;2023-04-03T10:04:55;13.10;78.20
32097;DHT22;18610;49.916;8.284;2023-04-03T10:07:32;13.00;77.70
32097;DHT22;18610;49.916;8.284;2023-04-03T10:10:01;12.80;78.10
32097;DHT22;18610;49.916;8.284;2023-04-03T10:12:30;12.70;77.30
32097;DHT22;18610;49.916;8.284;2023-04-03T10:14:58;12.50;75.50
32097;DHT22;18610;49.916;8.284;2023-04-03T10:17:37;12.40;76.30
32097;DHT22;18610;49.916;8.284;2023-04-03T10:20:18;12.30;77.10
32097;DHT22;18610;49.916;8.284;2023-04-03T10:22:57;12.40;74.10
32097;DHT22;18610;49.916;8.284;2023-04-03T10:25:30;12.50;72.40
32097;DHT22;18610;49.916;8.284;2023-04-03T10:28:01;12.50;71.70
32097;DHT22;18610;49.916;8.284;2023-04-03T10:30:42;12.40;71.20
32097;DHT22;18610;49.916;8.284;2023-04-03T10:36:09;12.90;71.90
32097;DHT22;18610;49.916;8.284;2023-04-03T10:38:45;13.10;72.40
32097;DHT22;18610;49.916;8.284;2023-04-03T10:41:17;13.30;73.20
32097;DHT22;18610;49.916;8.284;2023-04-03T10:43:56;13.40;69.10
32097;DHT22;18610;49.916;8.284;2023-04-03T10:46:28;13.40;68.40
32097;DHT22;18610;49.916;8.284;2023-04-03T10:49:08;13.40;67.20
32097;DHT22;18610;49.916;8.284;2023-04-03T10:51:42;13.40;68.70
32097;DHT22;18610;49.916;8.284;2023-04-03T10:54:13;13.40;70.70
32097;DHT22;18610;49.916;8.284;2023-04-03T10:56:47;13.30;67.60
32097;DHT22;18610;49.916;8.284;2023-04-03T10:59:21;13.30;66.90
32097;DHT22;18610;49.916;8.284;2023-04-03T11:01:52;13.60;66.60
32097;DHT22;18610;49.916;8.284;2023-04-03T11:04:21;13.90;63.80
32097;DHT22;18610;49.916;8.284;2023-04-03T11:06:51;13.90;65.00
32097;DHT22;18610;49.916;8.284;2023-04-03T11:09:23;14.10;65.60
32097;DHT22;18610;49.916;8.284;2023-04-03T11:11:54;14.10;63.70
32097;DHT22;18610;49.916;8.284;2023-04-03T11:14:26;13.90;64.60
32097;DHT22;18610;49.916;8.284;2023-04-03T11:17:02;13.60;65.50
32097;DHT22;18610;49.916;8.284;2023-04-03T11:19:34;13.30;68.40
32097;DHT22;18610;49.916;8.284;2023-04-03T11:22:06;13.20;69.30
32097;DHT22;18610;49.916;8.284;2023-04-03T11:24:36;13.40;69.90
32097;DHT22;18610;49.916;8.284;2023-04-03T11:27:04;13.40;69.10
32097;DHT22;18610;49.916;8.284;2023-04-03T11:29:35;13.40;66.80
32097;DHT22;18610;49.916;8.284;2023-04-03T11:32:14;13.50;69.50
32097;DHT22;18610;49.916;8.284;2023-04-03T11:34:49;13.60;68.40
32097;DHT22;18610;49.916;8.284;2023-04-03T11:37:22;13.50;66.30
32097;DHT22;18610;49.916;8.284;2023-04-03T11:39:56;13.30;67.30
32097;DHT22;18610;49.916;8.284;2023-04-03T11:42:28;13.20;68.60
32097;DHT22;18610;49.916;8.284;2023-04-03T11:45:29;13.10;66.30
32097;DHT22;18610;49.916;8.284;2023-04-03T11:47:58;12.80;67.10
32097;DHT22;18610;49.916;8.284;2023-04-03T11:50:44;12.70;67.50
32097;DHT22;18610;49.916;8.284;2023-04-03T11:53:31;12.50;66.20
32097;DHT22;18610;49.916;8.284;2023-04-03T11:56:02;12.30;68.70
32097;DHT22;18610;49.916;8.284;2023-04-03T11:58:31;12.20;69.50
32097;DHT22;18610;49.916;8.284;2023-04-03T12:01:06;12.00;68.20
32097;DHT22;18610;49.916;8.284;2023-04-03T12:12:31;12.30;71.50
32097;DHT22;18610;49.916;8.284;2023-04-03T12:15:17;12.90;71.30
32097;DHT22;18610;49.916;8.284;2023-04-03T12:17:47;13.10;69.10
32097;DHT22;18610;49.916;8.284;2023-04-03T12:23:26;13.00;64.30
32097;DHT22;18610;49.916;8.284;2023-04-03T12:26:00;12.70;66.50
32097;DHT22;18610;49.916;8.284;2023-04-03T12:28:35;12.60;68.10
32097;DHT22;18610;49.916;8.284;2023-04-03T12:31:04;12.60;68.00
32097;DHT22;18610;49.916;8.284;2023-04-03T12:33:47;12.60;68.00
32097;DHT22;18610;49.916;8.284;2023-04-03T12:36:28;13.00;66.00
32097;DHT22;18610;49.916;8.284;2023-04-03T12:39:18;13.60;65.10
32097;DHT22;18610;49.916;8.284;2023-04-03T12:42:05;13.70;63.70
32097;DHT22;18610;49.916;8.284;2023-04-03T12:44:45;13.60;63.20
32097;DHT22;18610;49.916;8.284;2023-04-03T12:47:23;13.50;60.40
32097;DHT22;18610;49.916;8.284;2023-04-03T12:49:52;13.30;60.10
32097;DHT22;18610;49.916;8.284;2023-04-03T12:52:36;13.10;60.70
32097;DHT22;18610;49.916;8.284;2023-04-03T12:55:14;13.20;61.20
32097;DHT22;18610;49.916;8.284;2023-04-03T12:57:40;13.40;63.10
32097;DHT22;18610;49.916;8.284;2023-04-03T13:00:25;13.80;60.70
32097;DHT22;18610;49.916;8.284;2023-04-03T13:02:53;13.90;59.80
32097;DHT22;18610;49.916;8.284;2023-04-03T13:05:22;13.80;59.80
32097;DHT22;18610;49.916;8.284;2023-04-03T13:07:52;14.00;60.20
32097;DHT22;18610;49.916;8.284;2023-04-03T13:10:20;14.40;59.40
32097;DHT22;18610;49.916;8.284;2023-04-03T13:12:49;14.60;56.90
32097;DHT22;18610;49.916;8.284;2023-04-03T13:15:19;14.90;57.90
32097;DHT22;18610;49.916;8.284;2023-04-03T13:17:46;15.30;57.90
32097;DHT22;18610;49.916;8.284;2023-04-03T13:20:17;15.70;56.90
32097;DHT22;18610;49.916;8.284;2023-04-03T13:22:53;16.10;53.40
32097;DHT22;18610;49.916;8.284;2023-04-03T13:25:23;16.60;52.70
32097;DHT22;18610;49.916;8.284;2023-04-03T13:27:50;16.90;52.30
32097;DHT22;18610;49.916;8.284;2023-04-03T13:30:25;17.00;51.80
32097;DHT22;18610;49.916;8.284;2023-04-03T13:32:52;17.30;50.70
32097;DHT22;18610;49.916;8.284;2023-04-03T13:35:31;17.40;49.70
32097;DHT22;18610;49.916;8.284;2023-04-03T13:38:01;17.50;50.60
32097;DHT22;18610;49.916;8.284;2023-04-03T13:40:29;17.70;50.90
32097;DHT22;18610;49.916;8.284;2023-04-03T13:43:02;18.00;49.50
32097;DHT22;18610;49.916;8.284;2023-04-03T13:45:30;18.20;50.10
32097;DHT22;18610;49.916;8.284;2023-04-03T13:48:16;18.50;50.20
32097;DHT22;18610;49.916;8.284;2023-04-03T13:50:53;18.80;47.50
32097;DHT22;18610;49.916;8.284;2023-04-03T13:53:23;19.10;47.20
32097;DHT22;18610;49.916;8.284;2023-04-03T13:55:57;19.20;47.50
32097;DHT22;18610;49.916;8.284;2023-04-03T13:58:26;19.40;45.20
32097;DHT22;18610;49.916;8.284;2023-04-03T14:00:54;19.60;43.80
32097;DHT22;18610;49.916;8.284;2023-04-03T14:03:24;19.50;44.90
32097;DHT22;18610;49.916;8.284;2023-04-03T14:05:51;19.50;45.60
32097;DHT22;18610;49.916;8.284;2023-04-03T14:08:19;19.60;46.00
32097;DHT22;18610;49.916;8.284;2023-04-03T14:10:48;19.60;43.40
32097;DHT22;18610;49.916;8.284;2023-04-03T14:13:16;19.60;44.10
32097;DHT22;18610;49.916;8.284;2023-04-03T14:15:44;19.70;44.20
32097;DHT22;18610;49.916;8.284;2023-04-03T14:18:12;19.80;41.50
32097;DHT22;18610;49.916;8.284;2023-04-03T14:20:39;19.80;42.50
32097;DHT22;18610;49.916;8.284;2023-04-03T14:23:06;19.50;43.20
32097;DHT22;18610;49.916;8.284;2023-04-03T14:25:33;19.40;43.00
32097;DHT22;18610;49.916;8.284;2023-04-03T14:28:06;19.30;43.40
32097;DHT22;18610;49.916;8.284;2023-04-03T14:30:38;19.00;42.50
32097;DHT22;18610;49.916;8.284;2023-04-03T14:33:06;18.90;42.00
32097;DHT22;18610;49.916;8.284;2023-04-03T14:35:32;18.70;43.10
32097;DHT22;18610;49.916;8.284;2023-04-03T14:37:59;18.50;44.50
32097;DHT22;18610;49.916;8.284;2023-04-03T14:40:27;18.30;45.90
32097;DHT22;18610;49.916;8.284;2023-04-03T14:42:54;18.30;45.60
32097;DHT22;18610;49.916;8.284;2023-04-03T14:45:24;18.30;44.80
32097;DHT22;18610;49.916;8.284;2023-04-03T14:47:52;18.40;45.50
32097;DHT22;18610;49.916;8.284;2023-04-03T14:50:21;18.60;45.00
32097;DHT22;18610;49.916;8.284;2023-04-03T14:52:49;18.80;44.40
32097;DHT22;18610;49.916;8.284;2023-04-03T14:55:18;18.90;43.60
32097;DHT22;18610;49.916;8.284;2023-04-03T14:57:45;19.20;44.20
32097;DHT22;18610;49.916;8.284;2023-04-03T15:00:14;19.30;43.10
32097;DHT22;18610;49.916;8.284;2023-04-03T15:02:43;19.40;42.80
32097;DHT22;18610;49.916;8.284;2023-04-03T15:05:11;19.50;42.60
32097;DHT22;18610;49.916;8.284;2023-04-03T15:07:41;19.60;43.20
32097;DHT22;18610;49.916;8.284;2023-04-03T15:10:16;19.70;41.80
32097;DHT22;18610;49.916;8.284;2023-04-03T15:12:44;19.70;40.40
32097;DHT22;18610;49.916;8.284;2023-04-03T15:15:12;19.60;40.60
32097;DHT22;18610;49.916;8.284;2023-04-03T15:17:39;19.50;40.90
32097;DHT22;18610;49.916;8.284;2023-04-03T15:20:13;19.00;41.50
32097;DHT22;18610;49.916;8.284;2023-04-03T15:22:40;18.60;43.30
32097;DHT22;18610;49.916;8.284;2023-04-03T15:25:08;18.30;43.60
32097;DHT22;18610;49.916;8.284;2023-04-03T15:27:35;17.90;44.70
32097;DHT22;18610;49.916;8.284;2023-04-03T15:30:03;17.70;44.00
32097;DHT22;18610;49.916;8.284;2023-04-03T15:32:30;17.60;43.00
32097;DHT22;18610;49.916;8.284;2023-04-03T15:34:57;17.20;43.40
32097;DHT22;18610;49.916;8.284;2023-04-03T15:37:25;16.90;44.30
32097;DHT22;18610;49.916;8.284;2023-04-03T15:39:52;16.50;45.00
32097;DHT22;18610;49.916;8.284;2023-04-03T15:42:19;16.30;45.40
32097;DHT22;18610;49.916;8.284;2023-04-03T15:44:46;16.10;45.40
32097;DHT22;18610;49.916;8.284;2023-04-03T15:47:13;16.00;45.80
32097;DHT22;18610;49.916;8.284;2023-04-03T15:49:39;15.80;45.60
32097;DHT22;18610;49.916;8.284;2023-04-03T15:52:06;15.50;45.60
32097;DHT22;18610;49.916;8.284;2023-04-03T15:54:34;15.30;45.90
32097;DHT22;18610;49.916;8.284;2023-04-03T15:57:01;15.10;46.00
32097;DHT22;18610;49.916;8.284;2023-04-03T15:59:28;14.90;47.00
32097;DHT22;18610;49.916;8.284;2023-04-03T16:01:59;14.80;47.40
32097;DHT22;18610;49.916;8.284;2023-04-03T16:04:26;14.60;47.70
32097;DHT22;18610;49.916;8.284;2023-04-03T16:06:53;14.40;48.50
32097;DHT22;18610;49.916;8.284;2023-04-03T16:09:20;14.40;48.70
32097;DHT22;18610;49.916;8.284;2023-04-03T16:11:48;14.30;49.10
32097;DHT22;18610;49.916;8.284;2023-04-03T16:14:14;14.10;49.00